createdAt,value
2019-03-29T00:00:13.827Z,93.00
2019-03-29T00:02:44.737Z,92.80
2019-03-29T00:05:14.358Z,93.00
2019-03-29T00:07:44.063Z,92.70
2019-03-29T00:10:13.757Z,93.20
2019-03-29T00:12:43.058Z,93.10
2019-03-29T00:15:12.376Z,93.10
2019-03-29T00:17:41.668Z,93.10
2019-03-29T00:20:11.239Z,93.00
2019-03-29T00:22:40.524Z,92.90
2019-03-29T00:25:09.835Z,93.00
2019-03-29T00:27:39.485Z,93.00
2019-03-29T00:30:08.947Z,92.80
2019-03-29T00:32:38.250Z,92.80
2019-03-29T00:35:08.285Z,92.80
2019-03-29T00:37:38.015Z,93.10
2019-03-29T00:40:07.973Z,92.60
2019-03-29T00:42:37.330Z,92.60
2019-03-29T00:45:07.931Z,93.00
2019-03-29T00:47:37.221Z,93.20
2019-03-29T00:50:08.236Z,93.10
2019-03-29T00:52:37.541Z,93.10
2019-03-29T00:55:07.529Z,92.80
2019-03-29T00:57:36.842Z,92.60
2019-03-29T01:00:09.808Z,92.80
2019-03-29T01:02:39.569Z,92.70
2019-03-29T01:05:09.032Z,92.50
2019-03-29T01:07:38.623Z,92.60
2019-03-29T01:10:08.111Z,92.60
2019-03-29T01:12:37.903Z,92.50
2019-03-29T01:15:09.180Z,92.40
2019-03-29T01:17:38.794Z,92.20
2019-03-29T01:20:09.024Z,92.50
2019-03-29T01:22:38.354Z,92.30
2019-03-29T01:25:08.529Z,92.40
2019-03-29T01:27:38.006Z,92.40
2019-03-29T01:30:08.033Z,92.30
2019-03-29T01:32:37.331Z,92.60
2019-03-29T01:35:08.341Z,92.80
2019-03-29T01:37:38.409Z,92.90
2019-03-29T01:40:08.944Z,92.70
2019-03-29T01:42:38.418Z,93.30
2019-03-29T01:45:08.459Z,93.70
2019-03-29T01:47:37.760Z,93.50
2019-03-29T01:50:08.396Z,93.80
2019-03-29T01:52:37.712Z,94.50
2019-03-29T01:55:08.147Z,94.80
2019-03-29T01:57:37.451Z,95.60
2019-03-29T02:00:09.069Z,95.70
2019-03-29T02:02:38.576Z,95.70
2019-03-29T02:05:08.712Z,95.80
2019-03-29T02:07:38.185Z,95.90
2019-03-29T02:10:09.746Z,96.30
2019-03-29T02:12:39.048Z,96.10
2019-03-29T02:15:09.747Z,95.70
2019-03-29T02:17:39.322Z,95.70
2019-03-29T02:20:08.704Z,95.30
2019-03-29T02:22:38.090Z,95.20
2019-03-29T02:25:08.552Z,94.90
2019-03-29T02:27:38.830Z,94.80
2019-03-29T02:30:08.996Z,94.60
2019-03-29T02:32:38.626Z,94.40
2019-03-29T02:35:08.153Z,94.60
2019-03-29T02:37:37.458Z,94.30
2019-03-29T02:40:07.427Z,94.30
2019-03-29T02:42:37.152Z,94.40
2019-03-29T02:45:07.177Z,94.50
2019-03-29T02:47:36.472Z,94.50
2019-03-29T02:50:08.589Z,94.40
2019-03-29T02:52:38.452Z,94.60
2019-03-29T02:55:08.480Z,94.70
2019-03-29T02:57:37.810Z,94.70
2019-03-29T03:00:09.018Z,94.70
2019-03-29T03:02:38.341Z,94.70
2019-03-29T03:05:08.954Z,94.60
2019-03-29T03:07:38.323Z,94.80
2019-03-29T03:10:10.467Z,94.80
2019-03-29T03:12:39.837Z,94.80
2019-03-29T03:15:10.192Z,94.80
2019-03-29T03:17:39.552Z,94.80
2019-03-29T03:20:15.445Z,94.80
2019-03-29T03:22:44.619Z,94.60
2019-03-29T03:25:14.459Z,94.80
2019-03-29T03:27:43.757Z,94.80
2019-03-29T03:30:13.474Z,95.00
2019-03-29T03:32:42.846Z,95.10
2019-03-29T03:35:13.019Z,95.10
2019-03-29T03:37:42.377Z,95.00
2019-03-29T03:40:12.987Z,94.90
2019-03-29T03:42:42.597Z,94.80
2019-03-29T03:45:13.820Z,95.00
2019-03-29T03:47:43.140Z,95.00
2019-03-29T03:50:33.725Z,94.90
2019-03-29T03:53:03.094Z,94.70
2019-03-29T03:55:33.350Z,94.80
2019-03-29T03:58:05.009Z,94.90
2019-03-29T04:00:57.565Z,94.60
2019-03-29T04:03:27.321Z,94.80
2019-03-29T04:05:57.086Z,94.80
2019-03-29T04:08:26.427Z,95.00
2019-03-29T04:10:56.078Z,95.00
2019-03-29T04:13:25.632Z,95.30
2019-03-29T04:15:55.302Z,95.20
2019-03-29T04:18:24.594Z,95.20
2019-03-29T04:20:53.900Z,95.20
2019-03-29T04:23:24.556Z,95.20
2019-03-29T04:25:53.874Z,95.10
2019-03-29T04:28:23.441Z,95.10
2019-03-29T04:30:53.073Z,95.10
2019-03-29T04:33:22.674Z,95.10
2019-03-29T04:35:52.063Z,95.10
2019-03-29T04:38:21.386Z,95.10
2019-03-29T04:40:51.067Z,95.00
2019-03-29T04:43:20.431Z,95.00
2019-03-29T04:45:49.996Z,95.00
2019-03-29T04:48:19.376Z,94.90
2019-03-29T04:50:48.675Z,94.90
2019-03-29T04:53:18.039Z,95.10
2019-03-29T04:55:47.370Z,94.90
2019-03-29T04:58:16.685Z,95.20
2019-03-29T05:00:45.992Z,95.70
2019-03-29T05:03:15.305Z,95.80
2019-03-29T05:05:44.651Z,96.00
2019-03-29T05:08:13.949Z,95.80
2019-03-29T05:10:43.338Z,95.80
2019-03-29T05:13:12.892Z,95.60
2019-03-29T05:15:42.204Z,95.70
2019-03-29T05:18:11.529Z,95.80
2019-03-29T05:20:40.824Z,95.70
2019-03-29T05:23:10.125Z,95.50
2019-03-29T05:25:39.725Z,95.60
2019-03-29T05:28:09.056Z,95.80
2019-03-29T05:30:38.361Z,95.60
2019-03-29T05:33:07.673Z,95.60
2019-03-29T05:35:36.973Z,95.40
2019-03-29T05:38:06.634Z,95.50
2019-03-29T05:40:35.950Z,95.50
2019-03-29T05:43:05.255Z,95.40
2019-03-29T05:45:34.571Z,95.50
2019-03-29T05:48:04.124Z,95.60
2019-03-29T05:50:36.600Z,95.50
2019-03-29T05:53:04.448Z,95.60
2019-03-29T05:55:33.765Z,95.40
2019-03-29T05:58:03.107Z,95.40
2019-03-29T06:00:32.676Z,95.40
2019-03-29T06:03:02.013Z,95.00
2019-03-29T06:05:31.595Z,94.30
2019-03-29T06:08:00.915Z,93.80
2019-03-29T06:10:30.219Z,93.00
2019-03-29T06:12:59.807Z,92.40
2019-03-29T06:15:29.113Z,91.70
2019-03-29T06:17:59.837Z,90.80
2019-03-29T06:20:29.165Z,90.30
2019-03-29T06:22:58.476Z,90.30
2019-03-29T06:25:27.770Z,89.90
2019-03-29T06:27:57.084Z,89.70
2019-03-29T06:30:29.687Z,89.70
2019-03-29T06:32:59.071Z,89.90
2019-03-29T06:35:32.976Z,89.80
2019-03-29T06:38:04.585Z,89.70
2019-03-29T06:40:33.898Z,89.80
2019-03-29T06:43:03.513Z,89.50
2019-03-29T06:45:46.558Z,89.60
2019-03-29T06:48:03.820Z,89.50
2019-03-29T06:50:33.151Z,89.50
2019-03-29T06:53:02.507Z,87.80
2019-03-29T06:55:31.818Z,88.60
2019-03-29T06:58:01.234Z,89.00
2019-03-29T07:00:30.521Z,89.10
2019-03-29T07:02:59.813Z,89.50
2019-03-29T07:05:29.132Z,89.50
2019-03-29T07:07:58.462Z,89.00
2019-03-29T07:10:27.786Z,88.90
2019-03-29T07:12:57.081Z,88.30
2019-03-29T07:15:26.509Z,88.90
2019-03-29T07:17:55.832Z,88.20
2019-03-29T07:20:25.133Z,88.40
2019-03-29T07:22:54.511Z,88.00
2019-03-29T07:25:24.183Z,87.70
2019-03-29T07:27:53.720Z,87.70
2019-03-29T07:30:23.103Z,87.80
2019-03-29T07:32:52.398Z,87.20
2019-03-29T07:35:21.934Z,87.90
2019-03-29T07:37:51.219Z,87.70
2019-03-29T07:40:20.551Z,86.50
2019-03-29T07:42:49.836Z,85.70
2019-03-29T07:45:19.145Z,85.30
2019-03-29T07:47:48.424Z,84.30
2019-03-29T07:50:19.188Z,83.50
2019-03-29T07:52:48.599Z,83.10
2019-03-29T07:55:17.908Z,81.80
2019-03-29T07:57:47.212Z,82.10
2019-03-29T08:00:20.201Z,80.90
2019-03-29T08:02:47.819Z,80.90
2019-03-29T08:05:17.912Z,79.80
2019-03-29T08:07:47.495Z,79.90
2019-03-29T08:10:25.793Z,78.40
2019-03-29T08:12:49.418Z,78.20
2019-03-29T08:15:19.132Z,78.80
2019-03-29T08:17:48.505Z,77.90
2019-03-29T08:20:40.165Z,78.80
2019-03-29T08:22:49.503Z,78.60
2019-03-29T08:25:18.858Z,79.00
2019-03-29T08:27:48.160Z,77.90
2019-03-29T08:30:17.467Z,77.50
2019-03-29T08:32:46.780Z,77.20
2019-03-29T08:35:16.115Z,76.80
2019-03-29T08:37:45.417Z,78.00
2019-03-29T08:40:15.071Z,79.10
2019-03-29T08:42:44.364Z,77.40
2019-03-29T08:45:13.708Z,77.60
2019-03-29T08:47:43.004Z,76.80
2019-03-29T08:50:12.569Z,76.10
2019-03-29T08:52:41.861Z,76.60
2019-03-29T08:55:11.255Z,75.10
2019-03-29T08:57:40.816Z,74.80
2019-03-29T09:00:10.589Z,73.20
2019-03-29T09:02:39.887Z,73.60
2019-03-29T09:05:09.311Z,72.60
2019-03-29T09:07:45.065Z,72.60
2019-03-29T09:10:13.027Z,71.00
2019-03-29T09:12:42.398Z,71.50
2019-03-29T09:15:11.691Z,70.10
2019-03-29T09:17:41.028Z,70.60
2019-03-29T09:20:10.851Z,69.80
2019-03-29T09:22:40.137Z,69.90
2019-03-29T09:25:09.508Z,71.10
2019-03-29T09:27:38.818Z,69.90
2019-03-29T09:30:08.559Z,70.20
2019-03-29T09:32:37.861Z,68.90
2019-03-29T09:35:07.284Z,70.00
2019-03-29T09:37:36.607Z,70.70
2019-03-29T09:40:06.565Z,70.70
2019-03-29T09:42:35.877Z,69.80
2019-03-29T09:45:07.069Z,71.50
2019-03-29T09:47:40.345Z,71.20
2019-03-29T09:50:10.406Z,70.90
2019-03-29T09:52:39.159Z,71.80
2019-03-29T09:55:09.535Z,72.30
2019-03-29T09:57:38.837Z,72.70
2019-03-29T10:00:20.642Z,72.10
2019-03-29T10:02:40.833Z,70.40
2019-03-29T10:05:10.146Z,69.50
2019-03-29T10:07:39.436Z,69.40
2019-03-29T10:10:08.711Z,70.40
2019-03-29T10:12:43.789Z,67.60
2019-03-29T10:15:10.509Z,69.60
2019-03-29T10:17:39.812Z,68.40
2019-03-29T10:20:09.242Z,67.70
2019-03-29T10:22:38.825Z,68.90
2019-03-29T10:25:19.057Z,69.30
2019-03-29T10:27:39.538Z,67.50
2019-03-29T10:30:09.483Z,68.00
2019-03-29T10:32:39.092Z,66.80
2019-03-29T10:35:08.516Z,67.10
2019-03-29T10:37:38.782Z,67.00
2019-03-29T10:40:09.285Z,66.60
2019-03-29T10:42:40.315Z,66.00
2019-03-29T10:45:09.892Z,65.60
2019-03-29T10:47:43.459Z,65.40
2019-03-29T10:50:10.303Z,65.40
2019-03-29T10:52:39.935Z,67.30
2019-03-29T10:55:09.672Z,65.40
2019-03-29T10:57:38.955Z,65.80
2019-03-29T11:00:12.955Z,65.30
2019-03-29T11:02:42.568Z,65.30
2019-03-29T11:05:11.860Z,65.70
2019-03-29T11:07:41.164Z,66.00
2019-03-29T11:10:13.550Z,66.20
2019-03-29T11:12:42.839Z,66.80
2019-03-29T11:15:12.192Z,65.50
2019-03-29T11:17:41.493Z,65.10
2019-03-29T11:20:11.054Z,66.10
2019-03-29T11:22:40.357Z,65.70
2019-03-29T11:25:09.709Z,65.40
2019-03-29T11:27:38.998Z,65.90
2019-03-29T11:30:08.566Z,67.10
2019-03-29T11:32:37.874Z,66.50
2019-03-29T11:35:07.151Z,65.70
2019-03-29T11:37:36.443Z,66.10
2019-03-29T11:40:07.280Z,65.70
2019-03-29T11:42:36.558Z,66.00
2019-03-29T11:45:06.837Z,66.00
2019-03-29T11:47:36.120Z,67.00
2019-03-29T11:50:25.075Z,65.80
2019-03-29T11:52:54.370Z,64.70
2019-03-29T11:55:23.726Z,63.80
2019-03-29T11:57:55.680Z,64.50
2019-03-29T12:00:34.474Z,65.00
2019-03-29T12:03:04.296Z,64.10
2019-03-29T12:05:36.202Z,64.10
2019-03-29T12:08:05.455Z,64.80
2019-03-29T12:10:35.266Z,64.70
2019-03-29T12:13:05.786Z,64.50
2019-03-29T12:15:35.064Z,64.50
2019-03-29T12:18:04.356Z,64.20
2019-03-29T12:20:33.719Z,64.40
2019-03-29T12:23:03.015Z,64.90
2019-03-29T12:25:32.309Z,64.20
2019-03-29T12:28:01.578Z,64.10
2019-03-29T12:30:32.455Z,64.40
2019-03-29T12:33:01.948Z,65.90
2019-03-29T12:35:31.227Z,63.80
2019-03-29T12:38:00.526Z,64.80
2019-03-29T12:40:29.813Z,65.40
2019-03-29T12:42:59.107Z,64.10
2019-03-29T12:45:28.391Z,64.10
2019-03-29T12:47:57.706Z,65.60
2019-03-29T12:50:27.250Z,63.60
2019-03-29T12:52:56.529Z,63.90
2019-03-29T12:55:25.811Z,64.40
2019-03-29T12:57:55.092Z,64.60
2019-03-29T13:00:24.651Z,65.30
2019-03-29T13:02:53.927Z,65.30
2019-03-29T13:05:23.225Z,65.20
2019-03-29T13:07:53.295Z,64.70
2019-03-29T13:10:22.906Z,65.20
2019-03-29T13:12:52.186Z,65.10
2019-03-29T13:15:21.466Z,64.90
2019-03-29T13:17:51.102Z,65.40
2019-03-29T13:20:20.456Z,65.00
2019-03-29T13:22:49.780Z,64.70
2019-03-29T13:25:19.067Z,65.10
2019-03-29T13:27:48.386Z,64.60
2019-03-29T13:30:17.920Z,64.60
2019-03-29T13:32:47.222Z,64.60
2019-03-29T13:35:16.514Z,64.60
2019-03-29T13:37:46.024Z,64.10
2019-03-29T13:40:15.735Z,64.50
2019-03-29T13:42:45.175Z,65.70
2019-03-29T13:45:14.699Z,64.50
2019-03-29T13:47:43.979Z,63.80
2019-03-29T13:50:13.504Z,64.40
2019-03-29T13:52:42.779Z,63.70
2019-03-29T13:55:12.227Z,63.50
2019-03-29T13:57:41.478Z,64.60
2019-03-29T14:00:12.383Z,65.30
2019-03-29T14:02:41.787Z,65.70
2019-03-29T14:05:11.066Z,64.40
2019-03-29T14:07:40.339Z,64.10
2019-03-29T14:10:10.163Z,64.40
2019-03-29T14:12:40.014Z,63.70
2019-03-29T14:15:11.280Z,63.60
2019-03-29T14:17:40.575Z,64.00
2019-03-29T14:20:10.550Z,64.10
2019-03-29T14:22:39.826Z,62.60
2019-03-29T14:25:10.053Z,63.60
2019-03-29T14:27:39.354Z,63.10
2019-03-29T14:30:10.150Z,63.70
2019-03-29T14:32:39.440Z,63.10
2019-03-29T14:35:09.161Z,63.40
2019-03-29T14:37:38.442Z,64.10
2019-03-29T14:40:07.969Z,63.90
2019-03-29T14:42:37.301Z,63.90
2019-03-29T14:45:07.910Z,62.80
2019-03-29T14:47:43.004Z,63.20
2019-03-29T14:50:09.511Z,63.20
2019-03-29T14:52:38.795Z,63.50
2019-03-29T14:55:08.788Z,64.10
2019-03-29T14:57:38.394Z,64.30
2019-03-29T15:00:09.959Z,66.30
2019-03-29T15:02:39.309Z,66.00
2019-03-29T15:05:08.998Z,64.40
2019-03-29T15:07:39.363Z,64.30
2019-03-29T15:10:26.320Z,64.00
2019-03-29T15:12:56.175Z,63.20
2019-03-29T15:15:25.524Z,62.50
2019-03-29T15:17:55.319Z,63.30
2019-03-29T15:20:24.927Z,62.70
2019-03-29T15:22:54.224Z,63.00
2019-03-29T15:25:23.616Z,63.20
2019-03-29T15:27:52.942Z,62.10
2019-03-29T15:30:22.238Z,61.80
2019-03-29T15:32:52.860Z,61.70
2019-03-29T15:35:22.467Z,62.10
2019-03-29T15:37:51.776Z,62.10
2019-03-29T15:40:21.065Z,61.80
2019-03-29T15:42:50.374Z,62.70
2019-03-29T15:45:21.120Z,62.20
2019-03-29T15:47:50.919Z,61.80
2019-03-29T15:50:20.201Z,62.50
2019-03-29T15:52:49.486Z,62.10
2019-03-29T15:55:18.767Z,62.80
2019-03-29T15:57:48.064Z,62.40
2019-03-29T16:00:17.990Z,62.50
2019-03-29T16:02:47.280Z,62.20
2019-03-29T16:05:16.555Z,62.00
2019-03-29T16:07:46.149Z,62.10
2019-03-29T16:10:15.754Z,62.50
2019-03-29T16:12:45.058Z,61.80
2019-03-29T16:15:14.351Z,61.80
2019-03-29T16:17:43.715Z,62.30
2019-03-29T16:20:13.002Z,62.70
2019-03-29T16:22:42.288Z,62.80
2019-03-29T16:25:11.782Z,64.00
2019-03-29T16:27:41.060Z,62.90
2019-03-29T16:30:10.678Z,62.80
2019-03-29T16:32:39.973Z,63.60
2019-03-29T16:35:09.318Z,63.50
2019-03-29T16:37:38.598Z,63.50
2019-03-29T16:40:08.519Z,64.10
2019-03-29T16:42:37.811Z,64.70
2019-03-29T16:45:08.161Z,63.90
2019-03-29T16:47:37.759Z,62.70
2019-03-29T16:50:08.187Z,63.10
2019-03-29T16:52:37.471Z,63.50
2019-03-29T16:55:13.426Z,63.00
2019-03-29T16:57:39.575Z,63.60
2019-03-29T17:00:12.479Z,63.70
2019-03-29T17:02:41.436Z,63.50
2019-03-29T17:05:11.009Z,64.80
2019-03-29T17:07:40.646Z,64.30
2019-03-29T17:10:10.167Z,64.10
2019-03-29T17:12:39.465Z,63.00
2019-03-29T17:15:10.376Z,64.10
2019-03-29T17:17:40.669Z,63.80
2019-03-29T17:20:10.213Z,63.40
2019-03-29T17:22:42.956Z,63.80
2019-03-29T17:25:10.555Z,64.00
2019-03-29T17:27:40.172Z,63.90
2019-03-29T17:30:10.668Z,64.00
2019-03-29T17:32:39.943Z,63.20
2019-03-29T17:35:09.370Z,64.40
2019-03-29T17:37:38.643Z,63.90
2019-03-29T17:40:09.130Z,65.10
2019-03-29T17:42:38.529Z,66.50
2019-03-29T17:45:08.083Z,65.60
2019-03-29T17:47:37.692Z,67.40
2019-03-29T17:50:07.319Z,68.60
2019-03-29T17:52:38.274Z,69.20
2019-03-29T17:55:07.635Z,70.00
2019-03-29T17:57:36.983Z,70.20
2019-03-29T18:00:08.074Z,70.90
2019-03-29T18:02:37.469Z,71.00
2019-03-29T18:05:08.367Z,70.90
2019-03-29T18:07:37.889Z,71.70
2019-03-29T18:10:07.910Z,72.70
2019-03-29T18:12:37.197Z,72.20
2019-03-29T18:15:10.054Z,72.10
2019-03-29T18:17:39.418Z,72.60
2019-03-29T18:20:11.201Z,72.70
2019-03-29T18:22:40.470Z,72.40
2019-03-29T18:25:10.363Z,74.00
2019-03-29T18:27:39.657Z,74.30
2019-03-29T18:30:11.595Z,74.80
2019-03-29T18:32:40.879Z,75.20
2019-03-29T18:35:10.815Z,75.00
2019-03-29T18:37:40.356Z,75.40
2019-03-29T18:40:23.027Z,75.40
2019-03-29T18:42:52.307Z,74.50
2019-03-29T18:45:21.630Z,75.20
2019-03-29T18:47:50.908Z,75.20
2019-03-29T18:50:20.474Z,75.50
2019-03-29T18:52:49.777Z,75.60
2019-03-29T18:55:19.066Z,75.60
2019-03-29T18:57:48.359Z,76.10
2019-03-29T19:00:21.063Z,76.30
2019-03-29T19:02:50.651Z,76.40
2019-03-29T19:05:27.023Z,77.20
2019-03-29T19:07:56.383Z,77.70
2019-03-29T19:10:25.956Z,77.80
2019-03-29T19:12:55.761Z,78.10
2019-03-29T19:15:25.739Z,78.20
2019-03-29T19:17:56.213Z,78.30
2019-03-29T19:20:27.799Z,78.30
2019-03-29T19:22:56.735Z,78.20
2019-03-29T19:25:26.566Z,76.90
2019-03-29T19:27:55.921Z,77.10
2019-03-29T19:30:25.667Z,76.70
2019-03-29T19:32:55.035Z,76.70
2019-03-29T19:35:24.363Z,76.10
2019-03-29T19:37:53.659Z,76.70
2019-03-29T19:40:22.949Z,75.80
2019-03-29T19:42:52.239Z,75.90
2019-03-29T19:45:21.586Z,76.20
2019-03-29T19:47:51.117Z,76.10
2019-03-29T19:50:20.468Z,75.70
2019-03-29T19:52:49.761Z,76.60
2019-03-29T19:55:19.058Z,75.70
2019-03-29T19:57:48.717Z,75.70
2019-03-29T20:00:18.468Z,75.90
2019-03-29T20:02:48.257Z,75.90
2019-03-29T20:05:27.044Z,75.60
2019-03-29T20:07:56.875Z,75.50
2019-03-29T20:10:26.307Z,75.30
2019-03-29T20:12:55.979Z,75.60
2019-03-29T20:15:25.251Z,75.20
2019-03-29T20:17:54.745Z,75.40
2019-03-29T20:20:25.586Z,75.40
2019-03-29T20:22:56.839Z,75.60
2019-03-29T20:25:26.602Z,75.40
2019-03-29T20:27:58.434Z,75.60
2019-03-29T20:30:28.871Z,76.90
2019-03-29T20:32:58.152Z,77.30
2019-03-29T20:35:27.435Z,77.00
2019-03-29T20:37:56.745Z,77.10
2019-03-29T20:40:26.092Z,77.40
2019-03-29T20:42:55.671Z,77.80
2019-03-29T20:45:25.275Z,78.20
2019-03-29T20:47:54.598Z,78.30
2019-03-29T20:50:23.990Z,78.40
2019-03-29T20:52:53.314Z,78.30
2019-03-29T20:55:22.651Z,78.80
2019-03-29T20:57:51.982Z,78.30
2019-03-29T21:00:21.434Z,77.80
2019-03-29T21:02:50.731Z,77.60
2019-03-29T21:05:20.016Z,77.30
2019-03-29T21:07:49.302Z,77.20
2019-03-29T21:10:18.651Z,76.60
2019-03-29T21:12:48.006Z,76.60
2019-03-29T21:15:18.155Z,77.30
2019-03-29T21:17:56.654Z,77.00
2019-03-29T21:20:18.858Z,77.20
2019-03-29T21:22:48.584Z,77.40
2019-03-29T21:25:17.870Z,77.70
2019-03-29T21:27:47.267Z,77.70
2019-03-29T21:30:17.668Z,78.20
2019-03-29T21:32:47.319Z,78.10
2019-03-29T21:35:16.938Z,78.60
2019-03-29T21:37:46.237Z,78.90
2019-03-29T21:40:16.191Z,79.30
2019-03-29T21:42:46.726Z,79.40
2019-03-29T21:45:27.969Z,79.30
2019-03-29T21:48:01.159Z,79.40
2019-03-29T21:50:18.612Z,79.60
2019-03-29T21:52:47.930Z,79.90
2019-03-29T21:55:17.490Z,80.50
2019-03-29T21:57:46.768Z,80.60
2019-03-29T22:00:16.295Z,80.40
2019-03-29T22:02:45.891Z,80.50
2019-03-29T22:05:15.198Z,80.70
2019-03-29T22:07:44.478Z,80.40
2019-03-29T22:10:14.100Z,80.50
2019-03-29T22:12:43.512Z,80.40
2019-03-29T22:15:14.335Z,80.70
2019-03-29T22:17:43.612Z,80.80
2019-03-29T22:20:13.239Z,80.90
2019-03-29T22:22:42.919Z,80.80
2019-03-29T22:25:12.537Z,80.80
2019-03-29T22:27:41.872Z,81.30
2019-03-29T22:30:12.238Z,81.40
2019-03-29T22:32:41.862Z,81.60
2019-03-29T22:35:11.327Z,81.80
2019-03-29T22:37:40.606Z,82.10
2019-03-29T22:40:10.427Z,82.40
2019-03-29T22:42:39.708Z,82.40
2019-03-29T22:45:09.753Z,82.30
2019-03-29T22:47:39.131Z,82.20
2019-03-29T22:50:09.184Z,82.10
2019-03-29T22:52:38.533Z,82.30
2019-03-29T22:55:07.967Z,82.50
2019-03-29T22:57:37.492Z,82.70
2019-03-29T23:00:18.666Z,82.80
2019-03-29T23:02:49.900Z,82.80
2019-03-29T23:05:19.200Z,82.60
2019-03-29T23:07:49.782Z,82.80
2019-03-29T23:10:19.084Z,83.20
2019-03-29T23:12:48.373Z,83.00
2019-03-29T23:15:19.002Z,82.80
2019-03-29T23:17:48.287Z,83.40
2019-03-29T23:20:18.659Z,83.80
2019-03-29T23:22:48.248Z,84.00
2019-03-29T23:25:17.540Z,83.60
2019-03-29T23:27:47.185Z,83.80
2019-03-29T23:30:17.816Z,83.60
2019-03-29T23:32:47.392Z,83.80
2019-03-29T23:35:16.988Z,84.20
2019-03-29T23:37:46.338Z,84.20
2019-03-29T23:40:15.626Z,84.40
2019-03-29T23:42:45.210Z,84.40
2019-03-29T23:45:15.573Z,84.90
2019-03-29T23:47:44.867Z,85.20
2019-03-29T23:50:14.551Z,85.10
2019-03-29T23:52:43.842Z,85.10
2019-03-29T23:55:13.201Z,84.90
2019-03-29T23:57:42.496Z,84.80
